Flying H, New Mexico
Current Conditions -  °F | °C
As of 12:15 PM on Sunday 21 Dec 2014 (Local Time) from KALM Reporting Station
Clear Clear  
Wind Chill: 50°   Ceiling: Unl
Heat Index: 50°   Visibility: 10mi
Dew Point: 30°   Wind: 3mph
Humidity: 47%   Direction: 190°S
Pressure: 29.99"   Gusts: NA
Location:  32.9146°N, 105.46°W
Report Text: KALM 211915Z AUTO 19003KT 10SM CLR 10/M01 A2999 RMK AO2
Loading
Personal Weather Stations






























Interactive Weather Map New forecast layout! Learn more

10-Day Weather Forecast

Advertisements
Track Severe Weather on mobile